sensor_id;sensor_type;location;lat;lon;timestamp;P1;durP1;ratioP1;P2;durP2;ratioP2
24090;SDS011;12272;52.426;17.100;2024-02-21T00:00:07;13.20;;;4.93;;
24090;SDS011;12272;52.426;17.100;2024-02-21T00:05:10;9.47;;;3.63;;
24090;SDS011;12272;52.426;17.100;2024-02-21T00:10:12;6.87;;;3.40;;
24090;SDS011;12272;52.426;17.100;2024-02-21T00:15:15;17.13;;;6.27;;
24090;SDS011;12272;52.426;17.100;2024-02-21T00:20:17;8.17;;;3.93;;
24090;SDS011;12272;52.426;17.100;2024-02-21T00:25:20;8.73;;;3.07;;
24090;SDS011;12272;52.426;17.100;2024-02-21T00:30:23;5.07;;;2.87;;
24090;SDS011;12272;52.426;17.100;2024-02-21T00:35:25;6.00;;;3.53;;
24090;SDS011;12272;52.426;17.100;2024-02-21T00:40:28;8.47;;;3.47;;
24090;SDS011;12272;52.426;17.100;2024-02-21T00:45:31;8.37;;;3.53;;
24090;SDS011;12272;52.426;17.100;2024-02-21T00:50:35;12.10;;;4.70;;
24090;SDS011;12272;52.426;17.100;2024-02-21T00:55:40;12.93;;;4.03;;
24090;SDS011;12272;52.426;17.100;2024-02-21T01:00:42;5.20;;;2.77;;
24090;SDS011;12272;52.426;17.100;2024-02-21T01:05:45;9.07;;;3.67;;
24090;SDS011;12272;52.426;17.100;2024-02-21T01:10:48;22.47;;;11.80;;
24090;SDS011;12272;52.426;17.100;2024-02-21T01:15:51;21.23;;;10.23;;
24090;SDS011;12272;52.426;17.100;2024-02-21T01:20:54;9.03;;;3.70;;
24090;SDS011;12272;52.426;17.100;2024-02-21T01:25:56;14.80;;;5.83;;
24090;SDS011;12272;52.426;17.100;2024-02-21T01:30:59;14.77;;;4.87;;
24090;SDS011;12272;52.426;17.100;2024-02-21T01:36:02;10.27;;;4.23;;
24090;SDS011;12272;52.426;17.100;2024-02-21T01:41:05;18.70;;;7.90;;
24090;SDS011;12272;52.426;17.100;2024-02-21T01:46:08;7.00;;;3.60;;
24090;SDS011;12272;52.426;17.100;2024-02-21T01:51:10;5.43;;;2.97;;
24090;SDS011;12272;52.426;17.100;2024-02-21T01:56:13;8.93;;;4.53;;
24090;SDS011;12272;52.426;17.100;2024-02-21T02:01:16;16.47;;;6.23;;
24090;SDS011;12272;52.426;17.100;2024-02-21T02:06:23;19.93;;;7.10;;
24090;SDS011;12272;52.426;17.100;2024-02-21T02:11:26;16.77;;;7.10;;
24090;SDS011;12272;52.426;17.100;2024-02-21T02:16:29;26.30;;;7.90;;
24090;SDS011;12272;52.426;17.100;2024-02-21T02:21:34;13.77;;;5.30;;
24090;SDS011;12272;52.426;17.100;2024-02-21T02:26:41;8.77;;;3.90;;
24090;SDS011;12272;52.426;17.100;2024-02-21T02:31:44;9.87;;;4.23;;
24090;SDS011;12272;52.426;17.100;2024-02-21T02:36:46;15.27;;;5.40;;
24090;SDS011;12272;52.426;17.100;2024-02-21T02:41:51;14.30;;;7.33;;
24090;SDS011;12272;52.426;17.100;2024-02-21T02:46:53;15.53;;;5.37;;
24090;SDS011;12272;52.426;17.100;2024-02-21T02:51:56;22.17;;;6.50;;
24090;SDS011;12272;52.426;17.100;2024-02-21T02:56:58;10.63;;;5.03;;
24090;SDS011;12272;52.426;17.100;2024-02-21T03:02:01;17.60;;;5.37;;
24090;SDS011;12272;52.426;17.100;2024-02-21T03:07:04;14.90;;;5.20;;
24090;SDS011;12272;52.426;17.100;2024-02-21T03:12:07;17.77;;;4.93;;
24090;SDS011;12272;52.426;17.100;2024-02-21T03:17:09;10.67;;;3.67;;
24090;SDS011;12272;52.426;17.100;2024-02-21T03:22:12;18.90;;;6.53;;
24090;SDS011;12272;52.426;17.100;2024-02-21T03:27:14;14.67;;;5.73;;
24090;SDS011;12272;52.426;17.100;2024-02-21T03:32:17;13.23;;;5.20;;
24090;SDS011;12272;52.426;17.100;2024-02-21T03:37:19;18.90;;;7.10;;
24090;SDS011;12272;52.426;17.100;2024-02-21T03:42:22;10.87;;;3.30;;
24090;SDS011;12272;52.426;17.100;2024-02-21T03:47:24;6.63;;;3.40;;
24090;SDS011;12272;52.426;17.100;2024-02-21T03:52:27;23.07;;;8.63;;
24090;SDS011;12272;52.426;17.100;2024-02-21T03:57:29;11.57;;;5.00;;
24090;SDS011;12272;52.426;17.100;2024-02-21T04:02:32;17.27;;;7.40;;
24090;SDS011;12272;52.426;17.100;2024-02-21T04:07:34;13.07;;;6.17;;
24090;SDS011;12272;52.426;17.100;2024-02-21T04:12:37;15.67;;;5.43;;
24090;SDS011;12272;52.426;17.100;2024-02-21T04:17:40;14.50;;;5.93;;
24090;SDS011;12272;52.426;17.100;2024-02-21T04:22:43;12.90;;;6.43;;
24090;SDS011;12272;52.426;17.100;2024-02-21T04:27:46;18.27;;;6.93;;
24090;SDS011;12272;52.426;17.100;2024-02-21T04:32:49;15.60;;;6.70;;
24090;SDS011;12272;52.426;17.100;2024-02-21T04:37:52;19.33;;;6.60;;
24090;SDS011;12272;52.426;17.100;2024-02-21T04:42:54;15.03;;;6.83;;
24090;SDS011;12272;52.426;17.100;2024-02-21T04:47:57;14.80;;;6.23;;
24090;SDS011;12272;52.426;17.100;2024-02-21T04:52:59;19.03;;;6.53;;
24090;SDS011;12272;52.426;17.100;2024-02-21T04:58:02;10.17;;;5.30;;
24090;SDS011;12272;52.426;17.100;2024-02-21T05:03:05;5.70;;;4.03;;
24090;SDS011;12272;52.426;17.100;2024-02-21T05:08:07;13.53;;;6.07;;
24090;SDS011;12272;52.426;17.100;2024-02-21T05:13:10;11.40;;;4.13;;
24090;SDS011;12272;52.426;17.100;2024-02-21T05:18:13;11.37;;;5.00;;
24090;SDS011;12272;52.426;17.100;2024-02-21T05:23:16;12.53;;;4.20;;
24090;SDS011;12272;52.426;17.100;2024-02-21T05:28:19;21.23;;;8.23;;
24090;SDS011;12272;52.426;17.100;2024-02-21T05:33:21;21.17;;;9.40;;
24090;SDS011;12272;52.426;17.100;2024-02-21T05:38:24;23.57;;;8.63;;
24090;SDS011;12272;52.426;17.100;2024-02-21T05:43:27;17.77;;;7.03;;
24090;SDS011;12272;52.426;17.100;2024-02-21T05:48:30;15.17;;;5.37;;
24090;SDS011;12272;52.426;17.100;2024-02-21T05:53:40;23.60;;;7.53;;
24090;SDS011;12272;52.426;17.100;2024-02-21T05:58:43;24.10;;;9.10;;
24090;SDS011;12272;52.426;17.100;2024-02-21T06:03:46;16.57;;;8.10;;
24090;SDS011;12272;52.426;17.100;2024-02-21T06:08:49;14.87;;;6.53;;
24090;SDS011;12272;52.426;17.100;2024-02-21T06:13:51;26.63;;;9.87;;
24090;SDS011;12272;52.426;17.100;2024-02-21T06:18:54;10.53;;;3.67;;
24090;SDS011;12272;52.426;17.100;2024-02-21T06:23:57;16.47;;;7.37;;
24090;SDS011;12272;52.426;17.100;2024-02-21T06:29:00;17.10;;;7.07;;
24090;SDS011;12272;52.426;17.100;2024-02-21T06:34:04;19.47;;;8.93;;
24090;SDS011;12272;52.426;17.100;2024-02-21T06:39:07;16.87;;;8.33;;
24090;SDS011;12272;52.426;17.100;2024-02-21T06:44:10;17.87;;;7.00;;
24090;SDS011;12272;52.426;17.100;2024-02-21T06:49:13;26.17;;;12.20;;
24090;SDS011;12272;52.426;17.100;2024-02-21T06:54:18;25.77;;;11.23;;
24090;SDS011;12272;52.426;17.100;2024-02-21T06:59:21;20.93;;;10.60;;
24090;SDS011;12272;52.426;17.100;2024-02-21T07:04:23;20.03;;;8.37;;
24090;SDS011;12272;52.426;17.100;2024-02-21T07:09:26;17.20;;;8.80;;
24090;SDS011;12272;52.426;17.100;2024-02-21T07:14:32;15.50;;;7.77;;
24090;SDS011;12272;52.426;17.100;2024-02-21T07:19:34;19.27;;;8.03;;
24090;SDS011;12272;52.426;17.100;2024-02-21T07:24:37;23.70;;;9.97;;
24090;SDS011;12272;52.426;17.100;2024-02-21T07:29:40;18.37;;;8.23;;
24090;SDS011;12272;52.426;17.100;2024-02-21T07:34:43;22.87;;;7.57;;
24090;SDS011;12272;52.426;17.100;2024-02-21T07:39:46;16.17;;;7.10;;
24090;SDS011;12272;52.426;17.100;2024-02-21T07:44:49;19.13;;;8.07;;
24090;SDS011;12272;52.426;17.100;2024-02-21T07:49:51;8.97;;;4.83;;
24090;SDS011;12272;52.426;17.100;2024-02-21T07:54:54;19.60;;;7.57;;
24090;SDS011;12272;52.426;17.100;2024-02-21T07:59:57;12.07;;;6.23;;
24090;SDS011;12272;52.426;17.100;2024-02-21T08:05:00;17.77;;;6.17;;
24090;SDS011;12272;52.426;17.100;2024-02-21T08:10:03;13.90;;;4.97;;
24090;SDS011;12272;52.426;17.100;2024-02-21T08:15:06;17.67;;;6.77;;
24090;SDS011;12272;52.426;17.100;2024-02-21T08:20:14;5.03;;;3.63;;
24090;SDS011;12272;52.426;17.100;2024-02-21T08:25:17;14.47;;;6.53;;
24090;SDS011;12272;52.426;17.100;2024-02-21T08:30:20;8.60;;;5.03;;
24090;SDS011;12272;52.426;17.100;2024-02-21T08:35:22;12.80;;;4.80;;
24090;SDS011;12272;52.426;17.100;2024-02-21T08:40:25;18.93;;;6.03;;
24090;SDS011;12272;52.426;17.100;2024-02-21T08:45:28;6.07;;;2.80;;
24090;SDS011;12272;52.426;17.100;2024-02-21T08:50:31;11.03;;;5.03;;
24090;SDS011;12272;52.426;17.100;2024-02-21T08:55:36;5.93;;;2.47;;
24090;SDS011;12272;52.426;17.100;2024-02-21T09:00:40;9.37;;;4.80;;
24090;SDS011;12272;52.426;17.100;2024-02-21T09:05:43;16.73;;;8.57;;
24090;SDS011;12272;52.426;17.100;2024-02-21T09:10:47;10.40;;;5.33;;
24090;SDS011;12272;52.426;17.100;2024-02-21T09:15:50;10.83;;;6.53;;
24090;SDS011;12272;52.426;17.100;2024-02-21T09:20:53;20.07;;;7.20;;
24090;SDS011;12272;52.426;17.100;2024-02-21T09:25:56;13.73;;;5.43;;
24090;SDS011;12272;52.426;17.100;2024-02-21T09:30:59;6.77;;;4.00;;
24090;SDS011;12272;52.426;17.100;2024-02-21T09:36:04;10.70;;;5.30;;
24090;SDS011;12272;52.426;17.100;2024-02-21T09:41:16;12.77;;;6.03;;
24090;SDS011;12272;52.426;17.100;2024-02-21T09:46:39;3.23;;;2.20;;
24090;SDS011;12272;52.426;17.100;2024-02-21T09:51:47;21.60;;;7.80;;
24090;SDS011;12272;52.426;17.100;2024-02-21T09:56:52;8.20;;;4.77;;
24090;SDS011;12272;52.426;17.100;2024-02-21T10:01:55;16.87;;;6.80;;
24090;SDS011;12272;52.426;17.100;2024-02-21T10:06:58;4.27;;;2.10;;
24090;SDS011;12272;52.426;17.100;2024-02-21T10:12:07;10.73;;;4.40;;
24090;SDS011;12272;52.426;17.100;2024-02-21T10:17:16;11.60;;;5.63;;
24090;SDS011;12272;52.426;17.100;2024-02-21T10:22:20;16.03;;;7.63;;
24090;SDS011;12272;52.426;17.100;2024-02-21T10:27:23;9.13;;;5.67;;
24090;SDS011;12272;52.426;17.100;2024-02-21T10:32:25;15.97;;;9.40;;
24090;SDS011;12272;52.426;17.100;2024-02-21T10:37:30;17.93;;;9.50;;
24090;SDS011;12272;52.426;17.100;2024-02-21T10:42:33;6.70;;;4.57;;
24090;SDS011;12272;52.426;17.100;2024-02-21T10:47:39;15.10;;;6.97;;
24090;SDS011;12272;52.426;17.100;2024-02-21T10:52:48;14.43;;;6.00;;
24090;SDS011;12272;52.426;17.100;2024-02-21T10:57:58;6.30;;;4.73;;
24090;SDS011;12272;52.426;17.100;2024-02-21T11:03:02;11.97;;;5.73;;
24090;SDS011;12272;52.426;17.100;2024-02-21T11:08:05;6.00;;;3.60;;
24090;SDS011;12272;52.426;17.100;2024-02-21T11:13:08;5.47;;;2.83;;
24090;SDS011;12272;52.426;17.100;2024-02-21T11:18:12;9.37;;;5.87;;
24090;SDS011;12272;52.426;17.100;2024-02-21T11:23:28;8.20;;;2.10;;
24090;SDS011;12272;52.426;17.100;2024-02-21T11:28:30;3.50;;;2.50;;
24090;SDS011;12272;52.426;17.100;2024-02-21T11:33:33;7.03;;;3.50;;
24090;SDS011;12272;52.426;17.100;2024-02-21T11:38:40;4.83;;;3.30;;
24090;SDS011;12272;52.426;17.100;2024-02-21T11:43:42;16.13;;;8.00;;
24090;SDS011;12272;52.426;17.100;2024-02-21T11:48:45;5.63;;;4.37;;
24090;SDS011;12272;52.426;17.100;2024-02-21T11:53:54;12.67;;;4.53;;
24090;SDS011;12272;52.426;17.100;2024-02-21T11:59:03;6.10;;;2.33;;
24090;SDS011;12272;52.426;17.100;2024-02-21T12:04:07;3.63;;;2.53;;
24090;SDS011;12272;52.426;17.100;2024-02-21T12:09:13;9.57;;;4.40;;
24090;SDS011;12272;52.426;17.100;2024-02-21T12:14:17;4.73;;;2.27;;
24090;SDS011;12272;52.426;17.100;2024-02-21T12:19:19;9.07;;;4.57;;
24090;SDS011;12272;52.426;17.100;2024-02-21T12:24:25;4.50;;;3.43;;
24090;SDS011;12272;52.426;17.100;2024-02-21T12:29:29;7.30;;;3.77;;
24090;SDS011;12272;52.426;17.100;2024-02-21T12:34:32;7.90;;;5.73;;
24090;SDS011;12272;52.426;17.100;2024-02-21T12:39:53;4.97;;;3.53;;
24090;SDS011;12272;52.426;17.100;2024-02-21T12:44:56;7.43;;;3.60;;
24090;SDS011;12272;52.426;17.100;2024-02-21T12:49:58;5.00;;;2.40;;
24090;SDS011;12272;52.426;17.100;2024-02-21T12:55:01;5.57;;;3.63;;
24090;SDS011;12272;52.426;17.100;2024-02-21T13:00:04;11.37;;;6.43;;
24090;SDS011;12272;52.426;17.100;2024-02-21T13:05:10;9.37;;;5.93;;
24090;SDS011;12272;52.426;17.100;2024-02-21T13:10:14;5.80;;;1.73;;
24090;SDS011;12272;52.426;17.100;2024-02-21T13:15:16;10.97;;;3.60;;
24090;SDS011;12272;52.426;17.100;2024-02-21T13:20:20;7.67;;;4.23;;
24090;SDS011;12272;52.426;17.100;2024-02-21T13:25:23;5.33;;;3.50;;
24090;SDS011;12272;52.426;17.100;2024-02-21T13:30:25;8.03;;;4.53;;
24090;SDS011;12272;52.426;17.100;2024-02-21T13:35:29;6.17;;;4.03;;
24090;SDS011;12272;52.426;17.100;2024-02-21T13:40:31;5.37;;;2.57;;
24090;SDS011;12272;52.426;17.100;2024-02-21T13:45:34;3.80;;;3.23;;
24090;SDS011;12272;52.426;17.100;2024-02-21T13:50:37;5.60;;;2.57;;
24090;SDS011;12272;52.426;17.100;2024-02-21T13:55:45;5.93;;;4.23;;
24090;SDS011;12272;52.426;17.100;2024-02-21T14:00:47;3.67;;;2.80;;
24090;SDS011;12272;52.426;17.100;2024-02-21T14:05:50;5.47;;;2.37;;
24090;SDS011;12272;52.426;17.100;2024-02-21T14:10:54;5.70;;;3.70;;
24090;SDS011;12272;52.426;17.100;2024-02-21T14:15:58;5.90;;;3.03;;
24090;SDS011;12272;52.426;17.100;2024-02-21T14:21:00;8.17;;;4.53;;
24090;SDS011;12272;52.426;17.100;2024-02-21T14:26:03;8.73;;;4.63;;
24090;SDS011;12272;52.426;17.100;2024-02-21T14:31:06;6.47;;;3.87;;
24090;SDS011;12272;52.426;17.100;2024-02-21T14:36:10;8.80;;;4.10;;
24090;SDS011;12272;52.426;17.100;2024-02-21T14:41:13;5.07;;;3.97;;
24090;SDS011;12272;52.426;17.100;2024-02-21T14:46:16;6.20;;;4.37;;
24090;SDS011;12272;52.426;17.100;2024-02-21T14:51:18;10.43;;;6.37;;
24090;SDS011;12272;52.426;17.100;2024-02-21T14:56:21;4.07;;;2.47;;
24090;SDS011;12272;52.426;17.100;2024-02-21T15:01:25;8.80;;;5.27;;
24090;SDS011;12272;52.426;17.100;2024-02-21T15:06:28;6.47;;;3.93;;
24090;SDS011;12272;52.426;17.100;2024-02-21T15:11:30;8.77;;;4.17;;
24090;SDS011;12272;52.426;17.100;2024-02-21T15:16:33;10.33;;;3.20;;
24090;SDS011;12272;52.426;17.100;2024-02-21T15:21:36;13.33;;;5.93;;
24090;SDS011;12272;52.426;17.100;2024-02-21T15:26:38;5.93;;;3.07;;
24090;SDS011;12272;52.426;17.100;2024-02-21T15:31:41;4.37;;;3.80;;
24090;SDS011;12272;52.426;17.100;2024-02-21T15:36:48;6.00;;;4.00;;
24090;SDS011;12272;52.426;17.100;2024-02-21T15:41:51;14.80;;;8.10;;
24090;SDS011;12272;52.426;17.100;2024-02-21T15:46:53;14.43;;;6.13;;
24090;SDS011;12272;52.426;17.100;2024-02-21T15:51:56;15.50;;;7.73;;
24090;SDS011;12272;52.426;17.100;2024-02-21T15:56:59;18.10;;;10.60;;
24090;SDS011;12272;52.426;17.100;2024-02-21T16:02:01;6.13;;;4.20;;
24090;SDS011;12272;52.426;17.100;2024-02-21T16:07:04;26.67;;;13.63;;
24090;SDS011;12272;52.426;17.100;2024-02-21T16:12:08;21.07;;;13.00;;
24090;SDS011;12272;52.426;17.100;2024-02-21T16:17:10;24.30;;;12.23;;
24090;SDS011;12272;52.426;17.100;2024-02-21T16:22:13;25.53;;;13.67;;
24090;SDS011;12272;52.426;17.100;2024-02-21T16:27:16;9.70;;;6.03;;
24090;SDS011;12272;52.426;17.100;2024-02-21T16:32:19;25.07;;;13.13;;
24090;SDS011;12272;52.426;17.100;2024-02-21T16:37:21;25.77;;;13.13;;
24090;SDS011;12272;52.426;17.100;2024-02-21T16:42:24;8.70;;;5.57;;
24090;SDS011;12272;52.426;17.100;2024-02-21T16:47:26;29.50;;;14.13;;
24090;SDS011;12272;52.426;17.100;2024-02-21T16:52:29;20.10;;;13.53;;
24090;SDS011;12272;52.426;17.100;2024-02-21T16:57:33;21.13;;;11.53;;
24090;SDS011;12272;52.426;17.100;2024-02-21T17:02:42;20.47;;;9.87;;
24090;SDS011;12272;52.426;17.100;2024-02-21T17:07:56;13.40;;;8.67;;
24090;SDS011;12272;52.426;17.100;2024-02-21T17:12:58;16.47;;;11.10;;
24090;SDS011;12272;52.426;17.100;2024-02-21T17:18:01;25.23;;;12.90;;
24090;SDS011;12272;52.426;17.100;2024-02-21T17:23:06;34.57;;;21.53;;
24090;SDS011;12272;52.426;17.100;2024-02-21T17:28:08;25.70;;;14.93;;
24090;SDS011;12272;52.426;17.100;2024-02-21T17:33:11;22.87;;;13.13;;
24090;SDS011;12272;52.426;17.100;2024-02-21T17:38:14;22.00;;;12.67;;
24090;SDS011;12272;52.426;17.100;2024-02-21T17:43:16;10.03;;;6.43;;
24090;SDS011;12272;52.426;17.100;2024-02-21T17:48:18;25.83;;;14.33;;
24090;SDS011;12272;52.426;17.100;2024-02-21T17:53:21;35.50;;;18.53;;
24090;SDS011;12272;52.426;17.100;2024-02-21T17:58:24;24.97;;;15.53;;
24090;SDS011;12272;52.426;17.100;2024-02-21T18:03:26;40.03;;;20.60;;
24090;SDS011;12272;52.426;17.100;2024-02-21T18:08:31;35.43;;;18.77;;
24090;SDS011;12272;52.426;17.100;2024-02-21T18:13:35;36.97;;;19.00;;
24090;SDS011;12272;52.426;17.100;2024-02-21T18:18:37;32.73;;;18.03;;
24090;SDS011;12272;52.426;17.100;2024-02-21T18:23:40;31.63;;;17.77;;
24090;SDS011;12272;52.426;17.100;2024-02-21T18:28:42;14.97;;;10.83;;
24090;SDS011;12272;52.426;17.100;2024-02-21T18:33:46;25.57;;;14.67;;
24090;SDS011;12272;52.426;17.100;2024-02-21T18:38:48;11.07;;;7.70;;
24090;SDS011;12272;52.426;17.100;2024-02-21T18:43:51;28.03;;;14.47;;
24090;SDS011;12272;52.426;17.100;2024-02-21T18:48:53;9.13;;;4.80;;
24090;SDS011;12272;52.426;17.100;2024-02-21T18:53:56;8.13;;;4.07;;
24090;SDS011;12272;52.426;17.100;2024-02-21T18:58:58;18.07;;;10.17;;
24090;SDS011;12272;52.426;17.100;2024-02-21T19:04:01;22.33;;;12.57;;
24090;SDS011;12272;52.426;17.100;2024-02-21T19:09:04;22.53;;;14.10;;
24090;SDS011;12272;52.426;17.100;2024-02-21T19:14:07;26.77;;;15.00;;
24090;SDS011;12272;52.426;17.100;2024-02-21T19:19:09;16.80;;;11.10;;
24090;SDS011;12272;52.426;17.100;2024-02-21T19:24:12;13.37;;;8.67;;
24090;SDS011;12272;52.426;17.100;2024-02-21T19:29:15;16.10;;;9.43;;
24090;SDS011;12272;52.426;17.100;2024-02-21T19:34:17;27.87;;;13.33;;
24090;SDS011;12272;52.426;17.100;2024-02-21T19:39:20;22.90;;;10.87;;
24090;SDS011;12272;52.426;17.100;2024-02-21T19:44:25;24.40;;;13.00;;
24090;SDS011;12272;52.426;17.100;2024-02-21T19:49:27;27.50;;;14.60;;
24090;SDS011;12272;52.426;17.100;2024-02-21T19:54:30;24.00;;;14.20;;
24090;SDS011;12272;52.426;17.100;2024-02-21T19:59:32;23.80;;;15.97;;
24090;SDS011;12272;52.426;17.100;2024-02-21T20:04:37;36.33;;;20.13;;
24090;SDS011;12272;52.426;17.100;2024-02-21T20:09:40;31.70;;;18.00;;
24090;SDS011;12272;52.426;17.100;2024-02-21T20:14:43;34.70;;;18.63;;
24090;SDS011;12272;52.426;17.100;2024-02-21T20:19:46;30.57;;;16.80;;
24090;SDS011;12272;52.426;17.100;2024-02-21T20:24:48;29.23;;;16.00;;
24090;SDS011;12272;52.426;17.100;2024-02-21T20:29:51;22.13;;;15.90;;
24090;SDS011;12272;52.426;17.100;2024-02-21T20:34:53;34.40;;;20.13;;
24090;SDS011;12272;52.426;17.100;2024-02-21T20:39:56;29.53;;;16.70;;
24090;SDS011;12272;52.426;17.100;2024-02-21T20:44:59;29.00;;;16.03;;
24090;SDS011;12272;52.426;17.100;2024-02-21T20:50:01;26.83;;;14.83;;
24090;SDS011;12272;52.426;17.100;2024-02-21T20:55:05;23.47;;;13.40;;
24090;SDS011;12272;52.426;17.100;2024-02-21T21:00:08;24.63;;;14.30;;
24090;SDS011;12272;52.426;17.100;2024-02-21T21:05:13;18.73;;;11.57;;
24090;SDS011;12272;52.426;17.100;2024-02-21T21:10:16;15.97;;;11.07;;
24090;SDS011;12272;52.426;17.100;2024-02-21T21:15:19;18.43;;;11.13;;
24090;SDS011;12272;52.426;17.100;2024-02-21T21:20:21;22.03;;;11.70;;
24090;SDS011;12272;52.426;17.100;2024-02-21T21:25:29;17.90;;;11.07;;
24090;SDS011;12272;52.426;17.100;2024-02-21T21:30:31;21.07;;;12.17;;
24090;SDS011;12272;52.426;17.100;2024-02-21T21:35:34;28.33;;;13.47;;
24090;SDS011;12272;52.426;17.100;2024-02-21T21:40:40;19.20;;;12.07;;
24090;SDS011;12272;52.426;17.100;2024-02-21T21:45:45;21.70;;;11.60;;
24090;SDS011;12272;52.426;17.100;2024-02-21T21:50:47;23.90;;;13.03;;
24090;SDS011;12272;52.426;17.100;2024-02-21T21:55:50;24.83;;;12.83;;
24090;SDS011;12272;52.426;17.100;2024-02-21T22:00:53;21.73;;;12.80;;
24090;SDS011;12272;52.426;17.100;2024-02-21T22:05:56;22.00;;;12.23;;
24090;SDS011;12272;52.426;17.100;2024-02-21T22:10:59;47.10;;;22.40;;
24090;SDS011;12272;52.426;17.100;2024-02-21T22:16:02;53.23;;;26.50;;
24090;SDS011;12272;52.426;17.100;2024-02-21T22:21:06;36.00;;;18.63;;
24090;SDS011;12272;52.426;17.100;2024-02-21T22:26:08;26.23;;;14.40;;
24090;SDS011;12272;52.426;17.100;2024-02-21T22:31:14;23.30;;;13.40;;
24090;SDS011;12272;52.426;17.100;2024-02-21T22:36:17;17.33;;;11.20;;
24090;SDS011;12272;52.426;17.100;2024-02-21T22:41:24;22.23;;;12.10;;
24090;SDS011;12272;52.426;17.100;2024-02-21T22:46:27;19.73;;;12.93;;
24090;SDS011;12272;52.426;17.100;2024-02-21T22:51:32;22.00;;;12.90;;
24090;SDS011;12272;52.426;17.100;2024-02-21T22:56:34;21.33;;;13.07;;
24090;SDS011;12272;52.426;17.100;2024-02-21T23:01:38;20.70;;;12.90;;
24090;SDS011;12272;52.426;17.100;2024-02-21T23:06:41;22.57;;;13.80;;
24090;SDS011;12272;52.426;17.100;2024-02-21T23:11:44;22.47;;;13.20;;
24090;SDS011;12272;52.426;17.100;2024-02-21T23:16:47;27.77;;;16.10;;
24090;SDS011;12272;52.426;17.100;2024-02-21T23:21:50;30.17;;;15.33;;
24090;SDS011;12272;52.426;17.100;2024-02-21T23:26:52;31.90;;;17.13;;
24090;SDS011;12272;52.426;17.100;2024-02-21T23:31:55;28.50;;;16.07;;
24090;SDS011;12272;52.426;17.100;2024-02-21T23:36:57;24.83;;;16.27;;
24090;SDS011;12272;52.426;17.100;2024-02-21T23:42:00;29.27;;;17.53;;
24090;SDS011;12272;52.426;17.100;2024-02-21T23:47:03;29.83;;;18.23;;
24090;SDS011;12272;52.426;17.100;2024-02-21T23:52:06;32.17;;;18.73;;
24090;SDS011;12272;52.426;17.100;2024-02-21T23:57:08;31.87;;;18.13;;
